Time;durP1;ratioP1;P1;durP2;ratioP2;P2;SDS_P1;SDS_P2;PMS_P1;PMS_P2;Temp;Humidity;BMP_temperature;BMP_pressure;BME280_temperature;BME280_humidity;BME280_pressure;Samples;Min_cycle;Max_cycle;Signal;HPM_P1;HPM_P2
2021/09/01 00:00:06;;;;;;;10.20;5.60;;;;;;;13.60;79.83;99040.26;115418;1205;22335;-57
2021/09/01 00:02:39;;;;;;;9.40;6.40;;;;;;;13.61;79.77;99036.64;115434;1205;22317;-57
2021/09/01 00:05:08;;;;;;;6.20;5.30;;;;;;;13.62;79.82;99034.88;115326;1202;138095;-57
2021/09/01 00:07:37;;;;;;;6.90;5.90;;;;;;;13.61;79.81;99034.55;115484;1205;23263;-57
2021/09/01 00:10:05;;;;;;;9.50;5.30;;;;;;;13.60;79.68;99032.44;115320;1200;140515;-57
2021/09/01 00:12:34;;;;;;;9.40;5.40;;;;;;;13.59;79.57;99039.08;115422;1206;22281;-57
2021/09/01 00:15:03;;;;;;;7.70;5.80;;;;;;;13.57;79.59;99035.63;115420;1208;22363;-58
2021/09/01 00:17:33;;;;;;;9.30;5.00;;;;;;;13.55;79.58;99040.76;115305;1201;137533;-57
2021/09/01 00:20:03;;;;;;;8.10;5.20;;;;;;;13.51;79.54;99035.39;115499;1212;22362;-57
2021/09/01 00:22:31;;;;;;;6.40;4.40;;;;;;;13.51;79.55;99039.71;115330;1200;137968;-58
2021/09/01 00:24:59;;;;;;;8.80;5.60;;;;;;;13.48;79.62;99037.98;115428;1206;23156;-57
2021/09/01 00:27:28;;;;;;;8.40;5.50;;;;;;;13.47;79.54;99039.69;115394;1202;137828;-57
2021/09/01 00:29:56;;;;;;;10.30;5.10;;;;;;;13.46;79.61;99040.73;115386;1207;22281;-58
2021/09/01 00:32:24;;;;;;;8.20;4.70;;;;;;;13.44;79.56;99040.64;115414;1205;22428;-58
2021/09/01 00:34:52;;;;;;;8.60;5.10;;;;;;;13.42;79.53;99037.16;115301;1200;138719;-58
2021/09/01 00:37:40;;;;;;;8.70;4.80;;;;;;;13.38;80.03;99030.86;115423;1205;22999;-58
2021/09/01 00:40:09;;;;;;;6.90;4.80;;;;;;;13.36;80.28;99029.89;115244;1202;137609;-58
2021/09/01 00:42:37;;;;;;;8.40;5.00;;;;;;;13.33;80.25;99022.85;115473;1205;23401;-58
2021/09/01 00:45:05;;;;;;;6.10;4.50;;;;;;;13.32;80.14;99024.02;115458;1205;22303;-58
2021/09/01 00:47:35;;;;;;;8.20;5.00;;;;;;;13.31;80.00;99021.45;115315;1202;137895;-58
2021/09/01 00:50:07;;;;;;;6.90;4.30;;;;;;;13.30;79.96;99014.77;115479;1207;22292;-57
2021/09/01 00:52:37;;;;;;;8.90;4.50;;;;;;;13.29;79.98;99016.48;115348;1201;139256;-57
2021/09/01 00:55:05;;;;;;;7.40;4.50;;;;;;;13.27;80.00;99014.89;115398;1205;22328;-57
2021/09/01 00:57:33;;;;;;;6.80;4.70;;;;;;;13.24;80.02;99017.76;115341;1202;138379;-57
2021/09/01 01:00:03;;;;;;;5.20;3.90;;;;;;;13.22;79.80;99018.04;115424;1205;22324;-57
2021/09/01 01:02:31;;;;;;;5.80;3.30;;;;;;;13.20;79.73;99018.55;115405;1205;22115;-57
2021/09/01 01:04:59;;;;;;;8.20;4.40;;;;;;;13.16;79.83;99018.63;115332;1201;137978;-57
2021/09/01 01:07:28;;;;;;;5.80;4.30;;;;;;;13.15;79.81;99021.08;115450;1205;22330;-58
2021/09/01 01:09:56;;;;;;;6.40;5.00;;;;;;;13.13;79.71;99026.02;115325;1200;138168;-58
2021/09/01 01:12:25;;;;;;;5.90;4.20;;;;;;;13.11;80.02;99024.02;115520;1205;22265;-57
2021/09/01 01:14:53;;;;;;;6.10;4.00;;;;;;;13.09;80.23;99020.59;115372;1206;23006;-57
2021/09/01 01:17:23;;;;;;;6.20;4.20;;;;;;;13.09;79.94;99017.03;115314;1202;137916;-57
2021/09/01 01:19:52;;;;;;;8.90;4.20;;;;;;;13.08;79.90;99015.33;115472;1205;22315;-58
2021/09/01 01:22:24;;;;;;;6.50;4.70;;;;;;;13.06;79.81;99016.06;115293;1202;138830;-58
2021/09/01 01:25:07;;;;;;;6.50;4.20;;;;;;;13.06;79.90;99018.92;115478;1212;22237;-58
2021/09/01 01:27:42;;;;;;;4.70;3.70;;;;;;;13.05;80.17;99012.95;115370;1201;138876;-57
2021/09/01 01:30:18;;;;;;;8.10;4.50;;;;;;;13.03;80.01;99011.00;115358;1205;23114;-58
2021/09/01 01:32:49;;;;;;;5.60;4.20;;;;;;;13.02;80.00;99011.66;115483;1205;22232;-58
2021/09/01 01:35:31;;;;;;;5.70;4.50;;;;;;;12.99;80.22;99014.54;115339;1202;137912;-58
2021/09/01 01:38:00;;;;;;;7.50;4.70;;;;;;;12.97;80.33;99013.91;115482;1205;22315;-57
2021/09/01 01:40:28;;;;;;;11.40;4.60;;;;;;;12.96;80.32;99010.24;115335;1202;138863;-58
2021/09/01 01:42:56;;;;;;;9.60;4.70;;;;;;;12.94;80.33;99007.70;115502;1205;22354;-58
2021/09/01 01:45:30;;;;;;;6.90;4.80;;;;;;;12.92;80.33;99008.04;115393;1203;138295;-58
2021/09/01 01:47:59;;;;;;;9.00;5.40;;;;;;;12.91;80.36;99001.54;115347;1206;22423;-57
2021/09/01 01:50:29;;;;;;;8.50;4.90;;;;;;;12.89;80.58;98997.81;115354;1207;22390;-57
2021/09/01 01:52:57;;;;;;;11.30;5.00;;;;;;;12.88;80.49;98993.07;115335;1201;137625;-58
2021/09/01 01:55:25;;;;;;;13.10;4.90;;;;;;;12.88;80.47;98985.96;115425;1205;22342;-57
2021/09/01 01:57:53;;;;;;;8.40;5.10;;;;;;;12.87;80.35;98981.76;115375;1200;138579;-57
2021/09/01 02:00:21;;;;;;;9.30;5.80;;;;;;;12.87;80.52;98980.77;115479;1206;23004;-57
2021/09/01 02:02:50;;;;;;;9.40;6.20;;;;;;;12.86;80.56;98978.60;115395;1206;23054;-58
2021/09/01 02:05:18;;;;;;;9.30;5.40;;;;;;;12.85;80.75;98973.95;115326;1200;137894;-58
2021/09/01 02:07:46;;;;;;;8.60;6.10;;;;;;;12.84;80.58;98969.52;115395;1205;22383;-57
2021/09/01 02:10:14;;;;;;;5.50;4.80;;;;;;;12.83;80.41;98965.24;115349;1201;138733;-58
2021/09/01 02:12:42;;;;;;;11.00;5.40;;;;;;;12.82;80.53;98965.52;115482;1205;22225;-58
2021/09/01 02:15:30;;;;;;;7.10;5.00;;;;;;;12.81;80.64;98962.03;115370;1200;138268;-58
2021/09/01 02:17:58;;;;;;;10.90;5.40;;;;;;;12.79;80.53;98952.59;115416;1205;22245;-57
2021/09/01 02:20:27;;;;;;;8.20;5.50;;;;;;;12.76;80.78;98948.29;115466;1205;22401;-57
2021/09/01 02:22:55;;;;;;;8.40;4.60;;;;;;;12.75;80.89;98951.41;115274;1200;138785;-57
2021/09/01 02:25:26;;;;;;;9.80;5.20;;;;;;;12.75;80.92;98947.20;115439;1205;22222;-58
2021/09/01 02:27:56;;;;;;;5.70;4.60;;;;;;;12.74;81.05;98946.49;115413;1201;139093;-57
2021/09/01 02:30:24;;;;;;;8.40;4.70;;;;;;;12.74;80.85;98948.35;115452;1205;23253;-58
2021/09/01 02:32:54;;;;;;;7.40;4.80;;;;;;;12.73;80.67;98955.74;115433;1205;22281;-57
2021/09/01 02:35:23;;;;;;;13.00;5.10;;;;;;;12.73;80.46;98962.24;115395;1207;137653;-58
2021/09/01 02:37:52;;;;;;;8.40;4.90;;;;;;;12.71;80.51;98963.30;115466;1205;22399;-58
2021/09/01 02:40:30;;;;;;;7.80;4.40;;;;;;;12.70;80.76;98958.17;115385;1201;137762;-58
2021/09/01 02:42:58;;;;;;;9.30;4.90;;;;;;;12.69;80.52;98962.11;115481;1205;23033;-58
2021/09/01 02:45:26;;;;;;;7.40;4.40;;;;;;;12.68;80.26;98963.13;115386;1200;137851;-58
2021/09/01 02:47:55;;;;;;;10.00;4.80;;;;;;;12.66;80.41;98961.27;115464;1206;22347;-57
2021/09/01 02:50:24;;;;;;;8.10;4.80;;;;;;;12.64;80.24;98956.14;115462;1205;22454;-57
2021/09/01 02:52:52;;;;;;;11.80;6.00;;;;;;;12.64;80.74;98957.14;115314;1202;137824;-57
2021/09/01 02:55:20;;;;;;;8.00;5.80;;;;;;;12.63;80.66;98957.46;115493;1205;23215;-58
2021/09/01 02:57:53;;;;;;;12.50;5.10;;;;;;;12.62;80.69;98959.98;115387;1202;138376;-57
2021/09/01 03:00:22;;;;;;;12.60;6.10;;;;;;;12.63;80.83;98963.92;115517;1206;23149;-58
2021/09/01 03:02:50;;;;;;;6.10;5.30;;;;;;;12.63;80.72;98961.40;115437;1205;22254;-58
2021/09/01 03:05:18;;;;;;;9.00;5.30;;;;;;;12.61;80.74;98961.58;115389;1205;139495;-58
2021/09/01 03:07:46;;;;;;;9.70;5.30;;;;;;;12.60;80.65;98960.55;115482;1205;22246;-58
2021/09/01 03:10:34;;;;;;;;;;;;;;;12.59;80.99;98957.55;115335;1200;137843;-58
2021/09/01 03:13:14;;;;;;;6.60;4.70;;;;;;;12.57;80.99;98950.52;115513;1205;22408;-58
2021/09/01 03:16:02;;;;;;;8.40;5.10;;;;;;;12.54;81.18;98948.42;115356;1201;138026;-58
2021/09/01 03:18:30;;;;;;;11.80;5.40;;;;;;;12.54;80.93;98946.34;115436;1205;22345;-58
2021/09/01 03:20:58;;;;;;;9.30;5.40;;;;;;;12.53;81.23;98945.64;115479;1205;22783;-58
2021/09/01 03:23:26;;;;;;;6.40;4.50;;;;;;;12.54;81.32;98940.61;115358;1204;138449;-58
2021/09/01 03:25:54;;;;;;;13.10;4.90;;;;;;;12.56;81.13;98938.38;115485;1205;22669;-58
2021/09/01 03:28:22;;;;;;;9.80;5.50;;;;;;;12.57;81.02;98938.48;115320;1203;138461;-58
2021/09/01 03:30:51;;;;;;;15.40;5.50;;;;;;;12.59;80.90;98938.26;115524;1206;22300;-58
2021/09/01 03:33:19;;;;;;;9.20;5.50;;;;;;;12.61;81.23;98940.05;115387;1201;138053;-58
2021/09/01 03:35:47;;;;;;;8.40;5.40;;;;;;;12.64;81.41;98943.20;115463;1206;22368;-58
2021/09/01 03:38:15;;;;;;;8.70;5.50;;;;;;;12.68;81.25;98943.61;115539;1206;22362;-58
2021/09/01 03:40:43;;;;;;;6.50;5.10;;;;;;;12.71;81.70;98944.81;115327;1201;138841;-58
2021/09/01 03:43:11;;;;;;;8.30;4.70;;;;;;;12.75;81.90;98946.66;115423;1212;23051;-58
2021/09/01 03:45:40;;;;;;;8.20;5.80;;;;;;;12.79;82.08;98941.21;115366;1200;138313;-58
2021/09/01 03:48:08;;;;;;;9.80;6.20;;;;;;;12.83;82.18;98941.61;115479;1205;22200;-57
2021/09/01 03:50:37;;;;;;;10.20;5.80;;;;;;;12.89;82.45;98944.89;115476;1207;22455;-58
2021/09/01 03:53:05;;;;;;;6.80;5.60;;;;;;;12.96;82.73;98944.79;115356;1206;138883;-58
2021/09/01 03:55:33;;;;;;;9.90;6.10;;;;;;;13.02;83.04;98940.77;115504;1207;22714;-58
2021/09/01 03:58:01;;;;;;;12.20;7.70;;;;;;;13.10;83.17;98947.22;115369;1201;138220;-58
2021/09/01 04:00:29;;;;;;;7.70;6.20;;;;;;;13.18;83.19;98942.84;115454;1207;22182;-58
2021/09/01 04:02:57;;;;;;;10.00;5.80;;;;;;;13.24;83.33;98942.66;115456;1206;22306;-58
2021/09/01 04:05:30;;;;;;;11.70;6.20;;;;;;;13.35;83.30;98945.58;115327;1202;138239;-58
2021/09/01 04:07:58;;;;;;;12.80;5.90;;;;;;;13.43;83.27;98938.91;115420;1206;23061;-58
2021/09/01 04:10:26;;;;;;;16.00;7.00;;;;;;;13.50;83.26;98937.95;115320;1202;138379;-58
2021/09/01 04:12:54;;;;;;;13.70;6.10;;;;;;;13.57;83.18;98939.73;115449;1206;22340;-57
2021/09/01 04:15:22;;;;;;;12.60;5.30;;;;;;;13.64;83.12;98936.64;115371;1201;139768;-58
2021/09/01 04:17:51;;;;;;;16.10;5.70;;;;;;;13.71;82.85;98935.52;115447;1205;22318;-58
2021/09/01 04:22:28;;;;;;;9.50;6.10;;;;;;;13.86;82.73;98931.16;109823;1221;545516;-59
2021/09/01 04:24:56;;;;;;;10.50;6.40;;;;;;;13.92;82.70;98929.05;115132;1210;23465;-57
2021/09/01 04:27:25;;;;;;;9.10;7.30;;;;;;;14.00;82.25;98927.30;115185;1206;140021;-58
2021/09/01 04:29:53;;;;;;;15.10;6.30;;;;;;;14.07;82.18;98926.83;115319;1209;22779;-58
2021/09/01 04:32:22;;;;;;;11.50;6.00;;;;;;;14.12;82.05;98928.34;115265;1205;22368;-58
2021/09/01 04:34:50;;;;;;;11.60;7.00;;;;;;;14.17;82.04;98929.09;115148;1205;137840;-58
2021/09/01 04:37:18;;;;;;;9.10;6.60;;;;;;;14.22;82.02;98933.19;115278;1213;22337;-58
2021/09/01 04:39:46;;;;;;;8.90;6.70;;;;;;;14.29;81.88;98935.44;115176;1209;137980;-58
2021/09/01 04:42:14;;;;;;;8.40;6.40;;;;;;;14.38;81.37;98934.11;115322;1209;22326;-58
2021/09/01 04:44:42;;;;;;;11.90;6.40;;;;;;;14.48;80.90;98930.91;115224;1210;23299;-58
2021/09/01 04:47:10;;;;;;;16.30;8.00;;;;;;;14.62;80.76;98928.06;115163;1205;138719;-58
2021/09/01 04:49:38;;;;;;;12.10;6.90;;;;;;;14.74;80.31;98927.63;115348;1209;22300;-58
2021/09/01 04:52:06;;;;;;;12.70;7.30;;;;;;;14.83;80.23;98933.30;115195;1205;139805;-58
2021/09/01 04:54:34;;;;;;;9.20;6.90;;;;;;;14.90;79.99;98939.15;115255;1210;22363;-58
2021/09/01 04:57:02;;;;;;;11.20;6.50;;;;;;;14.95;80.04;98938.86;115322;1210;23218;-58
2021/09/01 04:59:31;;;;;;;9.30;6.60;;;;;;;15.00;80.14;98933.18;114870;1207;138689;-58
2021/09/01 05:01:59;;;;;;;12.30;6.50;;;;;;;15.04;80.22;98933.14;115398;1205;22290;-58
2021/09/01 05:04:28;;;;;;;11.70;6.30;;;;;;;15.10;80.32;98930.25;115327;1202;137956;-58
2021/09/01 05:06:56;;;;;;;10.30;6.70;;;;;;;15.16;80.42;98926.07;115345;1206;22330;-57
2021/09/01 05:09:24;;;;;;;11.80;7.50;;;;;;;15.22;80.35;98924.27;115337;1201;137734;-58
2021/09/01 05:11:52;;;;;;;15.40;6.10;;;;;;;15.30;80.24;98925.00;115396;1205;23349;-59
2021/09/01 05:14:20;;;;;;;14.80;6.70;;;;;;;15.37;79.77;98925.63;115426;1206;23436;-58
2021/09/01 05:16:48;;;;;;;13.40;5.80;;;;;;;15.43;79.56;98927.82;115340;1202;138561;-58
2021/09/01 05:19:16;;;;;;;16.10;5.80;;;;;;;15.50;79.47;98932.17;115417;1205;22250;-58
2021/09/01 05:22:00;;;;;;;16.20;6.20;;;;;;;15.60;79.23;98934.05;115308;1202;137952;-58
2021/09/01 05:24:42;;;;;;;14.50;6.30;;;;;;;15.70;79.21;98931.81;115363;1205;22348;-58
2021/09/01 05:27:20;;;;;;;16.70;6.40;;;;;;;15.80;78.82;98931.55;115361;1206;24201;-58
2021/09/01 05:29:49;;;;;;;20.70;6.10;;;;;;;15.91;78.65;98930.05;115326;1206;137395;-58
2021/09/01 05:32:22;;;;;;;24.60;7.80;;;;;;;15.99;78.55;98931.20;115415;1205;22319;-58
2021/09/01 05:34:55;;;;;;;18.90;5.90;;;;;;;16.07;78.29;98929.81;115358;1202;138950;-58
2021/09/01 05:37:23;;;;;;;19.60;6.50;;;;;;;16.13;77.88;98930.89;115355;1205;22325;-58
2021/09/01 05:39:53;;;;;;;12.80;6.50;;;;;;;16.21;77.53;98934.29;115325;1202;137887;-58
2021/09/01 05:42:22;;;;;;;14.50;7.10;;;;;;;16.28;77.18;98938.33;115505;1205;22357;-58
2021/09/01 05:44:51;;;;;;;16.20;6.50;;;;;;;16.34;76.52;98938.21;115448;1205;22334;-58
2021/09/01 05:47:19;;;;;;;15.00;6.10;;;;;;;16.41;76.31;98932.08;115294;1202;138211;-58
2021/09/01 05:49:53;;;;;;;11.50;6.80;;;;;;;16.49;76.21;98932.91;115405;1207;22228;-60
2021/09/01 05:52:22;;;;;;;10.30;6.10;;;;;;;16.55;75.67;98935.42;115264;1202;137698;-57
2021/09/01 05:54:51;;;;;;;16.20;6.50;;;;;;;16.60;75.19;98928.25;115420;1210;22366;-57
2021/09/01 05:57:21;;;;;;;10.30;6.00;;;;;;;16.67;74.96;98922.89;115433;1211;22290;-58
2021/09/01 05:59:57;;;;;;;15.00;7.00;;;;;;;16.73;74.62;98915.98;115275;1202;138611;-59
2021/09/01 06:02:24;;;;;;;11.00;6.50;;;;;;;16.81;74.74;98908.20;115310;1207;23367;-59
2021/09/01 06:04:52;;;;;;;11.20;6.20;;;;;;;16.88;74.46;98906.39;115237;1202;137907;-59
2021/09/01 06:07:20;;;;;;;9.20;5.90;;;;;;;16.96;74.06;98906.93;115403;1204;22328;-59
2021/09/01 06:09:49;;;;;;;13.70;6.10;;;;;;;17.01;73.68;98912.77;115290;1201;138838;-59
2021/09/01 06:12:20;;;;;;;10.40;5.80;;;;;;;17.07;73.38;98918.26;115520;1204;22268;-60
2021/09/01 06:14:48;;;;;;;14.60;5.40;;;;;;;17.12;73.28;98919.82;115463;1207;22312;-59
2021/09/01 06:17:16;;;;;;;17.70;6.70;;;;;;;17.18;73.21;98919.80;115388;1200;138017;-59
2021/09/01 06:19:44;;;;;;;13.20;6.90;;;;;;;17.23;72.98;98923.98;115593;1204;22788;-59
2021/09/01 06:22:13;;;;;;;25.20;8.60;;;;;;;17.25;72.64;98917.81;115357;1204;138427;-59
2021/09/01 06:24:41;;;;;;;16.50;8.30;;;;;;;17.29;72.47;98920.42;115505;1204;22344;-59
2021/09/01 06:27:09;;;;;;;15.90;10.00;;;;;;;17.32;72.49;98921.52;115558;1211;22279;-59
2021/09/01 06:29:38;;;;;;;25.50;9.70;;;;;;;17.36;72.66;98927.21;115355;1201;137690;-59
2021/09/01 06:32:06;;;;;;;16.20;8.10;;;;;;;17.40;72.57;98929.31;115504;1204;22354;-59
2021/09/01 06:34:40;;;;;;;10.60;6.60;;;;;;;17.44;72.46;98927.62;115450;1199;137841;-59
2021/09/01 06:37:08;;;;;;;18.10;7.60;;;;;;;17.48;72.38;98930.34;115572;1204;23321;-59
2021/09/01 06:39:36;;;;;;;14.60;7.00;;;;;;;17.51;71.97;98930.00;115422;1201;137658;-59
2021/09/01 06:42:04;;;;;;;8.70;5.40;;;;;;;17.55;71.59;98934.85;115559;1204;22307;-59
2021/09/01 06:44:33;;;;;;;16.00;5.90;;;;;;;17.58;71.02;98928.88;115501;1204;22313;-58
2021/09/01 06:47:03;;;;;;;10.90;5.90;;;;;;;17.60;70.69;98926.77;115434;1201;137790;-58
2021/09/01 06:49:32;;;;;;;13.20;5.60;;;;;;;17.61;70.27;98926.05;115542;1204;22430;-59
2021/09/01 06:52:00;;;;;;;8.10;5.70;;;;;;;17.61;70.35;98923.81;115355;1201;137750;-59
2021/09/01 06:54:28;;;;;;;18.40;6.30;;;;;;;17.62;70.39;98924.59;115511;1204;22340;-59
2021/09/01 06:56:55;;;;;;;10.20;6.80;;;;;;;17.62;70.40;98925.60;115490;1204;22289;-59
2021/09/01 06:59:23;;;;;;;11.40;5.80;;;;;;;17.62;70.59;98925.04;115389;1201;137524;-57
2021/09/01 07:01:51;;;;;;;13.60;6.00;;;;;;;17.63;70.83;98924.09;115525;1204;24125;-62
2021/09/01 07:04:20;;;;;;;10.40;6.10;;;;;;;17.63;71.26;98921.99;115433;1200;138143;-57
2021/09/01 07:06:48;;;;;;;14.20;7.30;;;;;;;17.64;71.29;98921.33;115535;1204;22374;-57
2021/09/01 07:09:16;;;;;;;11.70;6.30;;;;;;;17.65;71.32;98921.18;115526;1204;22357;-57
2021/09/01 07:11:44;;;;;;;15.60;7.30;;;;;;;17.67;71.41;98919.92;115430;1201;137484;-58
2021/09/01 07:14:26;;;;;;;21.20;8.30;;;;;;;17.71;71.49;98922.30;115451;1206;23068;-58
2021/09/01 07:16:54;;;;;;;20.40;8.30;;;;;;;17.75;71.45;98921.14;115372;1201;140268;-58
2021/09/01 07:19:22;;;;;;;14.60;7.30;;;;;;;17.79;71.18;98921.90;115560;1204;22890;-57
2021/09/01 07:21:50;;;;;;;12.50;7.00;;;;;;;17.82;71.01;98924.45;115394;1200;138107;-59
2021/09/01 07:24:18;;;;;;;19.20;7.00;;;;;;;17.86;70.79;98928.65;115431;1204;23117;-59
2021/09/01 07:26:47;;;;;;;18.60;7.20;;;;;;;17.90;70.57;98925.65;115488;1204;22278;-59
2021/09/01 07:29:15;;;;;;;13.30;7.10;;;;;;;17.94;70.37;98927.85;115393;1204;138643;-59
2021/09/01 07:31:43;;;;;;;10.60;6.70;;;;;;;17.99;70.09;98928.31;115481;1204;22375;-59
2021/09/01 07:34:11;;;;;;;16.00;6.80;;;;;;;18.03;70.04;98928.58;115399;1201;139807;-59
2021/09/01 07:36:41;;;;;;;12.30;6.90;;;;;;;18.07;69.63;98929.28;115528;1204;22253;-60
2021/09/01 07:39:10;;;;;;;12.60;7.10;;;;;;;18.09;69.40;98929.33;115446;1204;22458;-55
2021/09/01 07:41:38;;;;;;;16.30;7.10;;;;;;;18.12;69.20;98929.47;111362;1200;136951;-53
2021/09/01 07:44:07;;;;;;;11.60;6.60;;;;;;;18.14;69.12;98928.98;111478;1204;24083;-52
2021/09/01 07:46:35;;;;;;;16.70;6.80;;;;;;;18.14;68.85;98932.88;115292;1200;137088;-53
2021/09/01 07:49:03;;;;;;;15.00;6.80;;;;;;;18.14;68.49;98930.73;115459;1205;22308;-53
2021/09/01 07:51:31;;;;;;;22.40;9.00;;;;;;;18.14;68.30;98932.23;115363;1201;137725;-53
2021/09/01 07:53:59;;;;;;;22.20;9.70;;;;;;;18.13;68.59;98929.51;115525;1204;22371;-53
2021/09/01 07:56:27;;;;;;;24.40;9.90;;;;;;;18.12;69.09;98930.56;115506;1204;22211;-55
2021/09/01 07:58:56;;;;;;;23.50;9.60;;;;;;;18.13;69.30;98929.05;115361;1204;138055;-54
2021/09/01 08:01:24;;;;;;;26.00;8.80;;;;;;;18.14;69.10;98927.66;115569;1204;22222;-53
2021/09/01 08:03:52;;;;;;;11.40;7.60;;;;;;;18.14;68.78;98934.83;115358;1201;138864;-53
2021/09/01 08:06:21;;;;;;;16.00;6.30;;;;;;;18.14;68.36;98936.64;115475;1209;22311;-53
2021/09/01 08:08:50;;;;;;;18.00;8.30;;;;;;;18.15;67.67;98937.39;115503;1204;23004;-54
2021/09/01 08:11:18;;;;;;;12.70;7.80;;;;;;;18.19;67.29;98933.63;115274;1201;138071;-54
2021/09/01 08:13:46;;;;;;;13.10;7.30;;;;;;;18.21;66.98;98928.56;115506;1204;23096;-53
2021/09/01 08:16:26;;;;;;;11.00;7.60;;;;;;;18.28;66.68;98932.13;115399;1201;137291;-53
2021/09/01 08:18:54;;;;;;;13.70;7.40;;;;;;;18.33;66.73;98930.55;115434;1204;22290;-53
2021/09/01 08:21:22;;;;;;;15.60;7.30;;;;;;;18.38;66.27;98929.27;115494;1204;23000;-53
2021/09/01 08:23:51;;;;;;;15.80;7.90;;;;;;;18.45;66.02;98928.56;115438;1200;137249;-53
2021/09/01 08:26:19;;;;;;;12.10;7.40;;;;;;;18.50;65.75;98926.89;115422;1211;22309;-56
2021/09/01 08:28:47;;;;;;;19.50;7.90;;;;;;;18.55;66.02;98926.91;115402;1201;136898;-54
2021/09/01 08:31:15;;;;;;;18.70;7.80;;;;;;;18.60;66.17;98929.63;115548;1211;22269;-53
2021/09/01 08:33:43;;;;;;;18.70;6.90;;;;;;;18.65;65.95;98926.66;115347;1201;139051;-53
2021/09/01 08:36:12;;;;;;;8.90;6.20;;;;;;;18.69;65.29;98929.07;115494;1205;23168;-53
2021/09/01 08:38:41;;;;;;;10.30;7.40;;;;;;;18.74;64.77;98930.13;115525;1204;22282;-54
2021/09/01 08:41:09;;;;;;;16.30;7.80;;;;;;;18.80;64.27;98929.43;115350;1201;137524;-53
2021/09/01 08:43:38;;;;;;;17.30;8.50;;;;;;;18.83;63.67;98927.36;115453;1211;22447;-54
2021/09/01 08:46:07;;;;;;;15.90;8.90;;;;;;;18.83;63.93;98927.30;115461;1204;137155;-53
2021/09/01 08:48:37;;;;;;;16.80;8.60;;;;;;;18.83;63.64;98927.02;115459;1204;22341;-54
2021/09/01 08:51:05;;;;;;;13.00;6.70;;;;;;;18.82;62.55;98924.51;115453;1204;22319;-53
2021/09/01 08:53:35;;;;;;;14.40;7.50;;;;;;;18.80;61.90;98927.10;115415;1201;137173;-53
2021/09/01 08:56:03;;;;;;;11.00;6.50;;;;;;;18.76;61.60;98928.02;115490;1205;22343;-53
2021/09/01 08:58:31;;;;;;;10.70;6.50;;;;;;;18.73;61.32;98931.51;115389;1198;137504;-53
2021/09/01 09:00:59;;;;;;;13.30;8.30;;;;;;;18.69;61.73;98931.05;115503;1201;22337;-53
2021/09/01 09:03:31;;;;;;;11.50;7.30;;;;;;;18.69;62.02;98929.13;115367;1211;138061;-55
2021/09/01 09:06:04;;;;;;;9.20;6.20;;;;;;;18.70;62.54;98932.09;115436;1207;22261;-54
2021/09/01 09:08:33;;;;;;;8.40;5.60;;;;;;;18.69;61.73;98933.10;115520;1204;22264;-53
2021/09/01 09:11:01;;;;;;;8.40;5.50;;;;;;;18.67;61.92;98930.01;115367;1201;137535;-54
2021/09/01 09:13:33;;;;;;;12.40;6.00;;;;;;;18.67;61.43;98929.69;115534;1204;22391;-53
2021/09/01 09:16:12;;;;;;;9.80;5.30;;;;;;;18.66;61.62;98930.65;115424;1210;138448;-53
2021/09/01 09:18:41;;;;;;;6.50;5.40;;;;;;;18.67;62.34;98930.73;115496;1204;22328;-54
2021/09/01 09:21:16;;;;;;;10.30;5.20;;;;;;;18.70;62.36;98930.23;115537;1211;22338;-53
2021/09/01 09:23:45;;;;;;;9.40;5.40;;;;;;;18.75;61.75;98933.16;115406;1205;137156;-53
2021/09/01 09:26:29;;;;;;;11.50;5.90;;;;;;;18.77;61.60;98927.52;115501;1204;22359;-54
2021/09/01 09:29:16;;;;;;;7.30;5.60;;;;;;;18.80;61.78;98929.41;115385;1201;137768;-53
2021/09/01 09:32:00;;;;;;;10.00;5.50;;;;;;;18.84;61.78;98924.22;115564;1207;22400;-53
2021/09/01 09:34:44;;;;;;;7.70;4.60;;;;;;;18.87;61.03;98924.18;115349;1205;138030;-53
2021/09/01 09:37:13;;;;;;;9.00;4.80;;;;;;;18.89;61.07;98924.05;115494;1205;23350;-53
2021/09/01 09:39:48;;;;;;;12.20;5.80;;;;;;;18.92;61.12;98920.14;114364;1201;137566;-54
2021/09/01 09:42:32;;;;;;;9.50;5.60;;;;;;;18.97;61.52;98923.60;115489;1204;22068;-54
2021/09/01 09:45:26;;;;;;;10.00;4.90;;;;;;;19.03;61.37;98918.58;115494;1204;22501;-54
2021/09/01 09:47:55;;;;;;;10.30;5.80;;;;;;;19.08;61.26;98913.57;115334;1201;136982;-54
2021/09/01 09:50:23;;;;;;;8.00;5.80;;;;;;;19.12;60.53;98913.05;115521;1204;22339;-55
2021/09/01 09:52:52;;;;;;;9.80;6.00;;;;;;;19.13;60.12;98908.21;115396;1201;137556;-55
2021/09/01 09:55:20;;;;;;;9.60;5.50;;;;;;;19.15;60.49;98903.63;115450;1204;23269;-55
2021/09/01 09:57:49;;;;;;;10.10;6.30;;;;;;;19.17;60.61;98905.83;115417;1201;137761;-54
2021/09/01 10:00:18;;;;;;;16.80;6.10;;;;;;;19.19;60.68;98906.56;115432;1207;22340;-54
2021/09/01 10:02:46;;;;;;;11.60;5.90;;;;;;;19.20;60.45;98902.25;115455;1205;22298;-54
2021/09/01 10:05:17;;;;;;;18.20;6.10;;;;;;;19.22;60.42;98900.30;115410;1201;137106;-55
2021/09/01 10:07:46;;;;;;;14.10;5.90;;;;;;;19.26;60.28;98899.76;115487;1211;23043;-54
2021/09/01 10:10:15;;;;;;;10.80;5.20;;;;;;;19.29;60.47;98898.05;115414;1201;137921;-55
2021/09/01 10:12:45;;;;;;;9.10;4.90;;;;;;;19.30;59.91;98897.55;115585;1204;22320;-54
2021/09/01 10:15:25;;;;;;;7.50;5.10;;;;;;;19.33;60.52;98897.60;115432;1204;22335;-54
2021/09/01 10:17:58;;;;;;;17.70;6.60;;;;;;;19.38;60.72;98891.27;115356;1201;136724;-54
2021/09/01 10:20:27;;;;;;;21.80;6.20;;;;;;;19.46;61.06;98889.64;115512;1204;22572;-54
2021/09/01 10:23:02;;;;;;;13.50;5.60;;;;;;;19.56;60.37;98883.42;115330;1204;138993;-54
2021/09/01 10:25:36;;;;;;;9.70;4.20;;;;;;;19.68;60.70;98883.52;115488;1207;22338;-54
2021/09/01 10:28:32;;;;;;;9.30;4.30;;;;;;;19.83;59.48;98880.97;115432;1202;138432;-54
2021/09/01 10:31:10;;;;;;;9.70;3.80;;;;;;;20.00;58.78;98880.23;115514;1205;22329;-54
2021/09/01 10:33:41;;;;;;;6.00;4.00;;;;;;;20.13;57.67;98880.57;115361;1201;137225;-54
2021/09/01 10:36:24;;;;;;;10.20;4.50;;;;;;;20.25;57.38;98878.30;115495;1211;22233;-54
2021/09/01 10:38:57;;;;;;;7.30;4.40;;;;;;;20.35;57.30;98876.29;115555;1211;22327;-54
2021/09/01 10:41:28;;;;;;;7.10;4.10;;;;;;;20.42;56.61;98872.77;115366;1200;137094;-54
2021/09/01 10:44:07;;;;;;;10.30;5.10;;;;;;;20.48;55.95;98874.16;115468;1204;22311;-55
2021/09/01 10:46:50;;;;;;;7.00;5.10;;;;;;;20.48;56.05;98872.17;115468;1201;138390;-54
2021/09/01 10:49:24;;;;;;;11.20;4.90;;;;;;;20.48;55.39;98868.23;115472;1211;22207;-54
2021/09/01 10:51:55;;;;;;;7.10;4.80;;;;;;;20.48;55.11;98866.83;115404;1201;137367;-54
2021/09/01 10:54:29;;;;;;;6.60;4.10;;;;;;;20.51;55.30;98869.28;115522;1211;22238;-54
2021/09/01 10:56:59;;;;;;;7.50;4.20;;;;;;;20.54;54.93;98870.02;115538;1211;22298;-54
2021/09/01 10:59:28;;;;;;;6.00;4.50;;;;;;;20.58;55.78;98873.23;115371;1202;137945;-54
2021/09/01 11:02:06;;;;;;;9.20;4.30;;;;;;;20.62;55.93;98875.39;115483;1205;23054;-55
2021/09/01 11:04:35;;;;;;;5.90;4.40;;;;;;;20.64;54.88;98876.62;115423;1200;136927;-54
2021/09/01 11:07:05;;;;;;;9.70;4.30;;;;;;;20.64;55.43;98876.65;115482;1204;22369;-54
2021/09/01 11:09:33;;;;;;;8.20;4.30;;;;;;;20.65;55.17;98881.56;115522;1205;22360;-54
2021/09/01 11:12:03;;;;;;;10.90;4.20;;;;;;;20.63;55.05;98876.27;115423;1201;137769;-54
2021/09/01 11:14:37;;;;;;;8.70;5.70;;;;;;;20.63;56.13;98869.41;115500;1204;22329;-54
2021/09/01 11:17:24;;;;;;;7.60;5.70;;;;;;;20.63;57.24;98878.34;115359;1202;136805;-55
2021/09/01 11:19:54;;;;;;;8.20;6.00;;;;;;;20.61;58.30;98881.36;115471;1210;23253;-54
2021/09/01 11:22:24;;;;;;;8.20;5.70;;;;;;;20.59;58.24;98884.86;115332;1200;137286;-54
2021/09/01 11:25:13;;;;;;;7.80;5.20;;;;;;;20.57;57.76;98882.08;115494;1211;22243;-54
2021/09/01 11:27:48;;;;;;;7.70;4.40;;;;;;;20.54;57.57;98879.52;115582;1211;22975;-54
2021/09/01 11:30:16;;;;;;;6.00;4.20;;;;;;;20.52;57.59;98872.23;115334;1201;137148;-54
2021/09/01 11:32:45;;;;;;;5.40;4.30;;;;;;;20.50;57.40;98867.41;115525;1205;22108;-55